Terminal Aerodrome Forecast
Issued by NWS

Home | Current Version | Previous Version | Text Only | Print | Product List | Glossary On
Versions: 1 2 3 4 5 6 7 8 9 10 11 12 13 14 15 16 17 18 19 20
363
FTUS46 KSEW 092355
TAFBLI
TAF
KBLI 092355Z 1000/1024 02008KT 5SM -SHSN BKN009 BKN025 OVC035
      TEMPO 1003/1007 02012G22KT 2SM -SN OVC009
     FM100900 10013KT 5SM -FZRA BKN009 BKN025 OVC035
     FM101200 13012KT P6SM -SHRASN BKN025 OVC040
     FM101600 14012KT P6SM SCT025 BKN040
     FM102200 14008KT P6SM -RA OVC025=

USA.gov is the U.S. government's official web portal to all federal, state and local government web resources and services.